Time;durP1;ratioP1;P1;durP2;ratioP2;P2;SDS_P1;SDS_P2;PMS_P1;PMS_P2;Temp;Humidity;BMP_temperature;BMP_pressure;BME280_temperature;BME280_humidity;BME280_pressure;Samples;Min_cycle;Max_cycle;Signal;HPM_P1;HPM_P2
2021/11/06 00:00:56;;;;;;;9.63;8.43;;;;;;;6.20;73.64;97451.14;1797717;80;21050;-79
2021/11/06 00:03:22;;;;;;;9.30;7.90;;;;;;;6.20;73.58;97456.30;1798133;80;20956;-79
2021/11/06 00:05:48;;;;;;;9.78;8.78;;;;;;;6.19;73.62;97452.09;1797951;80;20952;-79
2021/11/06 00:08:14;;;;;;;10.80;9.00;;;;;;;6.20;73.59;97462.76;1797828;80;20923;-79
2021/11/06 00:10:41;;;;;;;8.55;7.33;;;;;;;6.24;73.65;97464.13;1797904;80;20964;-80
2021/11/06 00:13:06;;;;;;;9.50;8.23;;;;;;;6.26;73.47;97466.92;1797882;80;20963;-79
2021/11/06 00:15:32;;;;;;;11.28;9.40;;;;;;;6.30;73.45;97464.89;1797850;80;20995;-80
2021/11/06 00:17:58;;;;;;;11.33;9.85;;;;;;;6.29;73.43;97466.66;1771298;80;21022;-79
2021/11/06 00:20:24;;;;;;;10.68;9.58;;;;;;;6.34;73.40;97467.55;1797787;80;21015;-81
2021/11/06 00:22:49;;;;;;;12.70;10.90;;;;;;;6.36;73.48;97464.40;1798077;80;21046;-81
2021/11/06 00:25:15;;;;;;;14.45;10.72;;;;;;;6.39;73.55;97466.72;1797889;80;21103;-81
2021/11/06 00:27:44;;;;;;;11.53;8.80;;;;;;;6.37;73.32;97468.61;1798067;80;21341;-81
2021/11/06 00:30:10;;;;;;;8.75;6.85;;;;;;;6.41;73.20;97473.04;1797235;80;21459;-81
2021/11/06 00:32:36;;;;;;;11.43;9.35;;;;;;;6.40;72.96;97468.35;1795188;80;21361;-81
2021/11/06 00:35:04;;;;;;;9.18;8.08;;;;;;;6.41;72.83;97468.69;1795044;80;20987;-81
2021/11/06 00:37:30;;;;;;;16.30;10.72;;;;;;;6.45;72.92;97470.53;1794977;80;21051;-81
2021/11/06 00:39:56;;;;;;;9.88;6.58;;;;;;;6.47;73.00;97471.22;1795093;80;21023;-82
2021/11/06 00:42:22;;;;;;;7.35;6.28;;;;;;;6.44;72.93;97468.91;1795005;80;20967;-82
2021/11/06 00:44:48;;;;;;;5.92;4.85;;;;;;;6.39;73.19;97471.06;1794995;80;20987;-81
2021/11/06 00:47:13;;;;;;;5.97;4.78;;;;;;;6.39;73.48;97469.77;1795217;80;20959;-81
2021/11/06 00:49:41;;;;;;;5.60;5.10;;;;;;;6.35;73.34;97465.82;1794989;80;21011;-81
2021/11/06 00:52:07;;;;;;;5.70;5.10;;;;;;;6.31;73.03;97462.66;1766514;80;21369;-81
2021/11/06 00:54:33;;;;;;;4.80;4.03;;;;;;;6.32;73.33;97457.83;1795232;80;21003;-81
2021/11/06 00:56:58;;;;;;;4.72;4.05;;;;;;;6.38;73.19;97453.94;1795019;80;20995;-81
2021/11/06 00:59:24;;;;;;;7.58;5.25;;;;;;;6.38;72.77;97463.80;1766316;80;21014;-81
2021/11/06 01:01:51;;;;;;;7.35;5.15;;;;;;;6.39;72.80;97459.45;1794709;80;21452;-81
2021/11/06 01:04:18;;;;;;;6.30;5.47;;;;;;;6.41;72.76;97466.11;1766477;80;21008;-81
2021/11/06 01:06:44;;;;;;;22.55;12.00;;;;;;;6.43;73.08;97463.40;1795192;80;20967;-81
2021/11/06 01:09:10;;;;;;;11.63;6.67;;;;;;;6.45;72.92;97470.06;1795095;80;20963;-81
2021/11/06 01:11:36;;;;;;;4.65;3.42;;;;;;;6.45;72.71;97463.61;1795085;80;21375;-81
2021/11/06 01:14:02;;;;;;;2.90;2.58;;;;;;;6.46;72.83;97463.95;1795080;80;20959;-81
2021/11/06 01:16:28;;;;;;;2.77;2.50;;;;;;;6.49;72.91;97460.28;1795014;80;20967;-81
2021/11/06 01:18:54;;;;;;;3.92;2.80;;;;;;;6.52;72.94;97465.22;1795084;80;20951;-81
2021/11/06 01:21:19;;;;;;;2.87;2.50;;;;;;;6.54;73.03;97471.06;1795121;80;20985;-82
2021/11/06 01:23:45;;;;;;;4.00;3.08;;;;;;;6.56;72.99;97470.45;1795023;80;21037;-81
2021/11/06 01:26:11;;;;;;;3.58;3.10;;;;;;;6.57;72.79;97474.20;1795269;80;21396;-82
2021/11/06 01:28:37;;;;;;;4.40;3.52;;;;;;;6.57;72.85;97478.07;1795120;80;20975;-81
2021/11/06 01:31:02;;;;;;;4.65;4.15;;;;;;;6.58;72.80;97478.89;1766074;80;21035;-82
2021/11/06 01:33:29;;;;;;;5.75;4.30;;;;;;;6.56;72.83;97482.08;1794700;80;21070;-81
2021/11/06 01:35:54;;;;;;;11.57;6.58;;;;;;;6.53;72.67;97484.45;1795033;80;21078;-81
2021/11/06 01:38:20;;;;;;;9.95;7.10;;;;;;;6.53;72.63;97487.51;1794916;80;20979;-82
2021/11/06 01:40:47;;;;;;;13.35;8.05;;;;;;;6.53;72.45;97484.45;1794975;80;21046;-81
2021/11/06 01:43:13;;;;;;;20.05;12.63;;;;;;;6.54;72.47;97486.56;1794970;80;20990;-81
2021/11/06 01:45:39;;;;;;;15.08;11.48;;;;;;;6.52;72.29;97484.11;1795169;80;20999;-81
2021/11/06 01:48:05;;;;;;;22.40;17.57;;;;;;;6.51;72.48;97481.19;1794997;80;20975;-82
2021/11/06 01:50:31;;;;;;;21.37;16.23;;;;;;;6.50;72.40;97487.73;1795107;80;21006;-82
2021/11/06 01:52:57;;;;;;;23.40;18.30;;;;;;;6.48;72.41;97486.58;1794922;80;21006;-82
2021/11/06 01:55:23;;;;;;;25.02;16.15;;;;;;;6.45;72.44;97478.28;1794988;80;21369;-82
2021/11/06 01:57:49;;;;;;;25.75;17.30;;;;;;;6.41;72.39;97485.95;1795012;80;21345;-81
2021/11/06 02:00:24;;;;;;;37.75;19.57;;;;;;;6.36;72.39;97484.23;1794975;80;21106;-81
2021/11/06 02:02:51;;;;;;;19.65;13.35;;;;;;;6.35;72.50;97480.84;1795033;80;20952;-82
2021/11/06 02:05:17;;;;;;;11.30;9.18;;;;;;;6.35;72.42;97479.55;1794973;80;21038;-82
2021/11/06 02:07:43;;;;;;;10.08;8.15;;;;;;;6.36;72.67;97482.47;1766311;80;20971;-81
2021/11/06 02:10:10;;;;;;;9.70;8.40;;;;;;;6.31;72.61;97475.56;1795170;80;21468;-81
2021/11/06 02:12:37;;;;;;;10.40;8.50;;;;;;;6.24;72.77;97470.58;1794935;80;20967;-81
2021/11/06 02:15:05;;;;;;;10.03;8.38;;;;;;;6.18;72.95;97473.66;1795025;80;21008;-81
2021/11/06 02:17:31;;;;;;;13.25;9.60;;;;;;;6.05;72.79;97479.51;1795097;80;21335;-82
2021/11/06 02:19:57;;;;;;;14.18;10.70;;;;;;;6.00;72.92;97474.70;1794965;80;20982;-81
2021/11/06 02:22:22;;;;;;;9.53;7.40;;;;;;;5.96;73.14;97472.86;1795106;80;21348;-81
2021/11/06 02:24:48;;;;;;;8.10;7.30;;;;;;;5.91;73.14;97471.61;1795022;80;21027;-81
2021/11/06 02:27:14;;;;;;;11.40;10.25;;;;;;;5.86;73.16;97480.99;1795338;80;20943;-82
2021/11/06 02:29:40;;;;;;;21.42;12.13;;;;;;;5.88;73.23;97485.55;1795089;80;20963;-81
2021/11/06 02:32:07;;;;;;;11.43;7.85;;;;;;;5.92;73.22;97484.84;1794861;80;21022;-81
2021/11/06 02:34:33;;;;;;;7.78;6.20;;;;;;;5.89;73.28;97482.02;1795280;80;20983;-81
2021/11/06 02:36:59;;;;;;;6.97;5.17;;;;;;;5.84;73.41;97480.27;1795191;80;20971;-81
2021/11/06 02:39:25;;;;;;;7.97;6.00;;;;;;;5.75;73.34;97473.30;1795248;80;21062;-81
2021/11/06 02:42:03;;;;;;;10.13;8.48;;;;;;;5.67;73.26;97481.64;1795213;80;21035;-81
2021/11/06 02:44:30;;;;;;;6.47;5.62;;;;;;;5.61;73.22;97479.57;1795279;80;20986;-81
2021/11/06 02:46:55;;;;;;;5.78;5.03;;;;;;;5.55;73.25;97474.11;1795284;80;21345;-81
2021/11/06 02:49:21;;;;;;;6.20;4.87;;;;;;;5.51;73.36;97477.38;1766479;80;20963;-81
2021/11/06 02:51:47;;;;;;;5.08;4.05;;;;;;;5.47;73.19;97475.99;1795112;80;20994;-81
2021/11/06 02:54:13;;;;;;;5.42;4.22;;;;;;;5.43;73.22;97468.98;1794944;80;21393;-81
2021/11/06 02:56:38;;;;;;;4.15;3.83;;;;;;;5.39;73.24;97469.36;1795207;80;20955;-81
2021/11/06 02:59:04;;;;;;;3.65;3.35;;;;;;;5.36;73.39;97476.02;1795267;80;21037;-81
2021/11/06 03:01:30;;;;;;;5.08;3.72;;;;;;;5.27;73.33;97480.16;1795079;80;21006;-81
2021/11/06 03:03:55;;;;;;;3.40;3.05;;;;;;;5.18;73.41;97478.30;1795184;80;20978;-81
2021/11/06 03:06:21;;;;;;;4.28;3.87;;;;;;;5.06;73.49;97481.40;1795043;80;21059;-81
2021/11/06 03:08:47;;;;;;;3.80;3.40;;;;;;;4.98;73.56;97477.30;1795144;80;20955;-81
2021/11/06 03:11:13;;;;;;;3.70;3.02;;;;;;;4.92;73.63;97486.80;1795117;80;20948;-81
2021/11/06 03:13:39;;;;;;;4.65;3.50;;;;;;;4.90;73.65;97485.30;1794902;80;20972;-81
2021/11/06 03:16:07;;;;;;;3.98;3.00;;;;;;;4.88;73.78;97481.55;1795253;80;21450;-81
2021/11/06 03:18:34;;;;;;;3.62;3.33;;;;;;;4.87;73.83;97493.23;1794951;80;21077;-81
2021/11/06 03:21:00;;;;;;;3.45;3.15;;;;;;;4.83;73.81;97496.52;1794920;80;21003;-81
2021/11/06 03:23:27;;;;;;;3.15;2.83;;;;;;;4.78;73.88;97499.46;1795124;80;21401;-81
2021/11/06 03:25:55;;;;;;;3.27;2.92;;;;;;;4.76;73.93;97510.34;1795080;80;21027;-81
2021/11/06 03:28:21;;;;;;;3.40;3.05;;;;;;;4.72;73.94;97508.14;1795177;80;20982;-81
2021/11/06 03:30:48;;;;;;;3.98;2.83;;;;;;;4.68;73.95;97512.67;1795386;80;21350;-81
2021/11/06 03:33:14;;;;;;;3.70;2.42;;;;;;;4.67;73.88;97521.34;1771188;80;20975;-81
2021/11/06 03:35:40;;;;;;;2.62;2.20;;;;;;;4.67;73.76;97527.77;1797797;80;21066;-81
2021/11/06 03:38:06;;;;;;;2.45;2.25;;;;;;;4.65;73.70;97520.64;1797889;80;21547;-81
2021/11/06 03:40:32;;;;;;;3.75;2.98;;;;;;;4.63;73.81;97522.98;1797840;80;21038;-81
2021/11/06 03:43:00;;;;;;;3.20;2.42;;;;;;;4.57;73.86;97527.33;1797838;80;20999;-81
2021/11/06 03:45:26;;;;;;;3.37;2.45;;;;;;;4.52;74.12;97520.75;1797894;80;21313;-81
2021/11/06 03:47:51;;;;;;;5.20;3.67;;;;;;;4.47;74.21;97531.87;1797942;80;20994;-82
2021/11/06 03:50:17;;;;;;;7.90;6.03;;;;;;;4.42;74.62;97529.30;1797869;80;20995;-81
2021/11/06 03:52:43;;;;;;;3.52;2.47;;;;;;;4.43;74.76;97541.23;1797867;80;21472;-81
2021/11/06 03:55:09;;;;;;;2.67;2.45;;;;;;;4.40;74.65;97541.46;1797923;80;20991;-81
2021/11/06 03:57:38;;;;;;;2.90;2.40;;;;;;;4.39;74.77;97538.51;1797863;80;21046;-81
2021/11/06 04:00:10;;;;;;;3.40;2.52;;;;;;;4.38;74.87;97536.41;1797825;80;21046;-81
2021/11/06 04:02:36;;;;;;;2.87;2.27;;;;;;;4.38;74.86;97541.55;1797984;80;21413;-81
2021/11/06 04:05:02;;;;;;;3.05;2.80;;;;;;;4.36;74.87;97540.03;1798024;80;21023;-81
2021/11/06 04:07:27;;;;;;;2.90;2.27;;;;;;;4.33;74.96;97540.27;1797784;80;20975;-81
2021/11/06 04:09:53;;;;;;;2.90;2.60;;;;;;;4.33;75.12;97535.94;1797919;80;21464;-81
2021/11/06 04:12:19;;;;;;;3.22;2.92;;;;;;;4.27;75.12;97540.27;1797588;80;21086;-81
2021/11/06 04:14:45;;;;;;;3.45;2.80;;;;;;;4.25;75.17;97538.28;1797959;80;20947;-81
2021/11/06 04:17:10;;;;;;;3.60;2.58;;;;;;;4.24;75.24;97537.92;1797925;80;20939;-81
2021/11/06 04:19:36;;;;;;;3.20;2.30;;;;;;;4.25;75.32;97534.89;1797913;80;21387;-81
2021/11/06 04:22:04;;;;;;;3.15;2.85;;;;;;;4.25;75.27;97533.60;1797574;80;21030;-80
2021/11/06 04:24:29;;;;;;;3.17;2.72;;;;;;;4.25;75.22;97531.84;1797936;80;21293;-81
2021/11/06 04:26:56;;;;;;;4.05;2.65;;;;;;;4.27;75.22;97535.59;1797982;80;21435;-81
2021/11/06 04:29:21;;;;;;;4.37;3.35;;;;;;;4.23;75.22;97536.29;1797687;80;21221;-82
2021/11/06 04:31:48;;;;;;;3.77;3.10;;;;;;;4.17;75.50;97533.69;1796424;80;21046;-81
2021/11/06 04:34:15;;;;;;;3.75;3.27;;;;;;;4.15;75.73;97530.41;1795040;80;20995;-81
2021/11/06 04:36:41;;;;;;;3.12;2.83;;;;;;;4.15;75.80;97534.73;1794866;80;21026;-81
2021/11/06 04:39:07;;;;;;;2.85;2.50;;;;;;;4.15;75.80;97534.27;1795190;80;21394;-81
2021/11/06 04:41:33;;;;;;;4.22;2.58;;;;;;;4.15;75.74;97539.88;1766290;80;20912;-81
2021/11/06 04:43:59;;;;;;;4.83;2.70;;;;;;;4.14;75.69;97540.81;1795364;80;21019;-81
2021/11/06 04:46:25;;;;;;;2.95;2.30;;;;;;;4.14;75.69;97545.96;1795133;80;20987;-81
2021/11/06 04:48:51;;;;;;;2.83;2.52;;;;;;;4.11;75.84;97543.16;1795022;80;20971;-81
2021/11/06 04:51:17;;;;;;;3.25;2.90;;;;;;;4.10;75.94;97547.95;1795187;80;21030;-81
2021/11/06 04:53:42;;;;;;;3.37;2.80;;;;;;;4.12;76.54;97551.69;1795285;80;20959;-81
2021/11/06 04:56:09;;;;;;;2.58;2.35;;;;;;;4.13;76.72;97551.58;1795045;80;21015;-81
2021/11/06 04:58:34;;;;;;;5.08;3.60;;;;;;;4.18;76.88;97549.94;1795102;80;21038;-81
2021/11/06 05:01:00;;;;;;;2.30;2.10;;;;;;;4.26;76.61;97548.92;1795310;80;21389;-81
2021/11/06 05:03:27;;;;;;;3.92;2.67;;;;;;;4.37;76.99;97553.25;1795315;80;20983;-81
2021/11/06 05:05:53;;;;;;;3.80;2.85;;;;;;;4.43;76.72;97543.80;1795130;80;21014;-81
2021/11/06 05:08:19;;;;;;;3.42;2.83;;;;;;;4.51;76.89;97556.90;1795197;80;20991;-81
2021/11/06 05:10:45;;;;;;;4.85;3.90;;;;;;;4.59;77.05;97557.16;1766683;80;20995;-81
2021/11/06 05:13:11;;;;;;;9.00;5.97;;;;;;;4.65;76.77;97559.73;1795384;80;21360;-81
2021/11/06 05:15:37;;;;;;;5.55;3.92;;;;;;;4.73;76.54;97554.36;1795189;80;20994;-81
2021/11/06 05:18:03;;;;;;;5.78;4.30;;;;;;;4.82;76.74;97555.40;1795076;80;21043;-81
2021/11/06 05:20:29;;;;;;;10.05;6.67;;;;;;;4.92;76.16;97559.39;1795114;80;21071;-81
2021/11/06 05:22:54;;;;;;;6.90;4.92;;;;;;;5.03;75.85;97566.62;1795325;80;21086;-81
2021/11/06 05:25:20;;;;;;;10.58;6.50;;;;;;;5.12;76.08;97564.64;1795098;80;20950;-81
2021/11/06 05:27:46;;;;;;;7.58;5.22;;;;;;;5.21;75.70;97576.47;1795278;80;20912;-81
2021/11/06 05:30:12;;;;;;;4.30;3.87;;;;;;;5.27;75.47;97578.09;1794977;80;21278;-81
2021/11/06 05:32:37;;;;;;;8.75;6.40;;;;;;;5.32;75.31;97578.55;1794939;79;21085;-81
2021/11/06 05:35:06;;;;;;;6.08;4.70;;;;;;;5.37;75.08;97573.87;1795319;80;21377;-81
2021/11/06 05:37:31;;;;;;;8.88;5.53;;;;;;;5.43;75.08;97577.72;1795262;80;20963;-81
2021/11/06 05:39:57;;;;;;;5.40;3.75;;;;;;;5.49;75.00;97580.27;1795347;80;21006;-81
2021/11/06 05:42:23;;;;;;;7.00;4.92;;;;;;;5.54;74.73;97582.86;1795099;80;21003;-81
2021/11/06 05:44:49;;;;;;;6.80;4.78;;;;;;;5.61;74.30;97584.47;1766203;80;20967;-81
2021/11/06 05:47:16;;;;;;;9.90;6.80;;;;;;;5.67;74.12;97576.23;1795215;80;21418;-81
2021/11/06 05:49:41;;;;;;;8.50;6.53;;;;;;;5.73;73.89;97583.50;1795063;80;21333;-81
2021/11/06 05:52:07;;;;;;;7.37;5.12;;;;;;;5.80;73.92;97595.42;1795233;80;21027;-81
2021/11/06 05:54:33;;;;;;;5.15;3.95;;;;;;;5.83;73.64;97595.17;1795371;80;21021;-81
2021/11/06 05:57:00;;;;;;;9.13;5.70;;;;;;;5.84;73.86;97595.05;1795053;80;21337;-81
2021/11/06 05:59:25;;;;;;;8.25;5.75;;;;;;;5.85;73.52;97601.84;1795250;80;20979;-81
2021/11/06 06:01:51;;;;;;;6.00;4.60;;;;;;;5.87;73.42;97602.57;1766270;80;21023;-81
2021/11/06 06:04:17;;;;;;;6.65;4.45;;;;;;;5.90;73.35;97597.19;1795362;80;21471;-81
2021/11/06 06:06:42;;;;;;;11.90;7.45;;;;;;;5.94;73.08;97605.50;1795243;80;20987;-81
2021/11/06 06:09:09;;;;;;;11.25;7.55;;;;;;;6.00;73.12;97607.10;1795544;80;20963;-81
2021/11/06 06:11:34;;;;;;;10.98;7.70;;;;;;;6.05;72.94;97618.36;1795259;80;21034;-81
2021/11/06 06:14:00;;;;;;;11.15;6.83;;;;;;;6.10;72.71;97619.28;1795367;80;21051;-81
2021/11/06 06:16:26;;;;;;;6.33;4.72;;;;;;;6.11;72.67;97624.31;1795427;80;20962;-81
2021/11/06 06:18:52;;;;;;;9.73;7.22;;;;;;;6.13;72.66;97626.77;1795435;80;21417;-81
2021/11/06 06:21:17;;;;;;;4.55;3.20;;;;;;;6.13;72.47;97630.16;1795372;80;21027;-81
2021/11/06 06:23:43;;;;;;;5.67;4.12;;;;;;;6.14;72.33;97627.93;1795439;80;20939;-81
2021/11/06 06:26:09;;;;;;;2.70;2.47;;;;;;;6.16;72.00;97631.67;1795489;80;20998;-81
2021/11/06 06:28:35;;;;;;;5.80;4.40;;;;;;;6.21;71.98;97626.98;1779775;80;20987;-81
2021/11/06 06:31:01;;;;;;;6.90;4.97;;;;;;;6.26;71.79;97625.66;1795049;80;20991;-81
2021/11/06 06:33:27;;;;;;;4.12;3.27;;;;;;;6.31;71.81;97633.02;1797575;80;20994;-81
2021/11/06 06:35:52;;;;;;;3.17;2.58;;;;;;;6.33;71.65;97629.84;1798223;80;21011;-81
2021/11/06 06:38:19;;;;;;;3.35;2.05;;;;;;;6.35;71.47;97630.56;1798004;80;21015;-81
2021/11/06 06:40:45;;;;;;;4.22;3.52;;;;;;;6.36;71.23;97623.16;1798363;80;20986;-81
2021/11/06 06:43:11;;;;;;;10.68;7.42;;;;;;;6.38;71.15;97636.76;1798026;80;21034;-81
2021/11/06 06:45:37;;;;;;;7.40;5.08;;;;;;;6.43;71.27;97641.06;1798248;80;20948;-81
2021/11/06 06:48:03;;;;;;;3.20;2.90;;;;;;;6.51;71.02;97641.28;1798131;80;20972;-81
2021/11/06 06:50:29;;;;;;;3.47;3.17;;;;;;;6.55;70.75;97638.78;1798284;80;20963;-81
2021/11/06 06:52:54;;;;;;;2.72;2.42;;;;;;;6.59;70.64;97637.58;1798052;80;20990;-81
2021/11/06 06:55:20;;;;;;;3.25;2.72;;;;;;;6.63;70.30;97645.41;1798277;80;21015;-81
2021/11/06 06:57:46;;;;;;;2.92;2.30;;;;;;;6.67;70.41;97643.86;1797727;80;20982;-81
2021/11/06 07:00:12;;;;;;;3.47;2.98;;;;;;;6.69;70.17;97649.27;1797891;80;20963;-81
2021/11/06 07:02:39;;;;;;;2.22;2.02;;;;;;;6.70;69.93;97645.74;1798234;80;21093;-81
2021/11/06 07:05:05;;;;;;;2.92;2.62;;;;;;;6.73;69.80;97650.65;1798220;80;21054;-81
2021/11/06 07:07:30;;;;;;;2.08;1.87;;;;;;;6.77;69.71;97649.45;1797958;80;21067;-81
2021/11/06 07:09:56;;;;;;;2.85;2.55;;;;;;;6.82;69.74;97652.93;1798072;80;21007;-81
2021/11/06 07:12:25;;;;;;;3.75;2.85;;;;;;;6.84;69.35;97656.23;1798249;80;21372;-81
2021/11/06 07:14:50;;;;;;;3.72;2.80;;;;;;;6.85;69.31;97656.58;1798290;80;21530;-81
2021/11/06 07:17:16;;;;;;;2.52;2.33;;;;;;;6.83;69.00;97653.27;1798205;80;20963;-81
2021/11/06 07:19:42;;;;;;;2.95;2.50;;;;;;;6.77;68.89;97658.96;1798174;80;20995;-81
2021/11/06 07:22:07;;;;;;;2.40;2.00;;;;;;;6.73;68.84;97658.40;1797992;80;21428;-81
2021/11/06 07:24:35;;;;;;;2.60;2.15;;;;;;;6.68;68.91;97662.31;1798221;80;20987;-81
2021/11/06 07:27:01;;;;;;;2.20;2.00;;;;;;;6.60;68.95;97674.08;1798225;80;21365;-81
2021/11/06 07:29:26;;;;;;;3.08;2.40;;;;;;;6.53;68.93;97667.79;1798108;80;21010;-81
2021/11/06 07:31:52;;;;;;;2.10;2.00;;;;;;;6.46;69.28;97674.38;1797867;80;21086;-81
2021/11/06 07:34:18;;;;;;;2.50;2.00;;;;;;;6.40;69.16;97672.78;1798194;80;21000;-81
2021/11/06 07:36:45;;;;;;;2.47;2.10;;;;;;;6.32;69.03;97671.61;1798509;80;21393;-81
2021/11/06 07:39:11;;;;;;;2.60;2.40;;;;;;;6.29;69.04;97670.58;1798315;80;21057;-81
2021/11/06 07:41:36;;;;;;;2.15;2.05;;;;;;;6.28;69.79;97675.39;1798225;80;21011;-81
2021/11/06 07:44:03;;;;;;;2.87;2.27;;;;;;;6.24;69.78;97677.88;1798512;80;21337;-81
2021/11/06 07:46:29;;;;;;;2.37;2.02;;;;;;;6.20;69.34;97679.08;1798459;80;21117;-81
2021/11/06 07:48:55;;;;;;;2.30;2.10;;;;;;;6.21;69.25;97678.60;1773900;80;21050;-81
2021/11/06 07:51:21;;;;;;;2.10;1.90;;;;;;;6.22;69.50;97674.61;1773880;80;20979;-81
2021/11/06 07:53:47;;;;;;;3.60;2.17;;;;;;;6.26;69.54;97680.34;1798409;80;20994;-81
2021/11/06 07:56:13;;;;;;;2.30;1.92;;;;;;;6.27;69.67;97688.42;1798317;80;21404;-81
2021/11/06 07:58:39;;;;;;;2.50;2.30;;;;;;;6.32;69.36;97687.58;1773831;80;20995;-81
2021/11/06 08:01:05;;;;;;;4.90;3.87;;;;;;;6.40;69.47;97689.55;1798329;80;21018;-81
2021/11/06 08:03:31;;;;;;;3.80;3.45;;;;;;;6.46;69.29;97697.61;1798350;80;21430;-81
2021/11/06 08:05:57;;;;;;;4.80;4.25;;;;;;;6.55;69.42;97696.06;1798171;80;20940;-81
2021/11/06 08:08:23;;;;;;;6.10;4.67;;;;;;;6.66;69.33;97693.88;1798514;80;21364;-81
2021/11/06 08:10:49;;;;;;;4.55;3.77;;;;;;;6.78;69.35;97699.34;1798301;80;21010;-81
2021/11/06 08:13:14;;;;;;;3.83;3.45;;;;;;;6.90;69.34;97692.70;1798042;80;20995;-81
2021/11/06 08:15:41;;;;;;;3.58;2.80;;;;;;;7.03;69.31;97696.86;1798023;80;21445;-81
2021/11/06 08:18:07;;;;;;;4.12;3.20;;;;;;;7.15;69.29;97694.53;1774033;80;21365;-81
2021/11/06 08:20:33;;;;;;;4.87;4.28;;;;;;;7.22;69.28;97693.91;1773741;80;20951;-81
2021/11/06 08:23:00;;;;;;;4.78;4.25;;;;;;;7.28;68.98;97693.03;1773674;80;21034;-81
2021/11/06 08:25:25;;;;;;;5.60;4.70;;;;;;;7.31;68.74;97697.47;1798195;80;21093;-81
2021/11/06 08:27:53;;;;;;;6.03;4.75;;;;;;;7.36;68.87;97698.39;1798416;80;20986;-81
2021/11/06 08:30:20;;;;;;;5.25;4.40;;;;;;;7.44;68.77;97708.89;1798298;80;20964;-81
2021/11/06 08:32:46;;;;;;;6.17;4.12;;;;;;;7.54;68.57;97714.94;1797962;80;21058;-81
2021/11/06 08:35:13;;;;;;;3.92;3.45;;;;;;;7.66;68.83;97706.62;1797752;80;21007;-81
2021/11/06 08:37:40;;;;;;;4.78;3.80;;;;;;;7.78;68.16;97712.83;1797952;80;21369;-81
2021/11/06 08:40:07;;;;;;;3.95;3.55;;;;;;;7.87;68.39;97716.41;1797801;80;20956;-81
2021/11/06 08:42:34;;;;;;;4.25;3.72;;;;;;;7.99;68.72;97718.42;1797891;80;21007;-81
2021/11/06 08:45:03;;;;;;;4.05;3.65;;;;;;;8.08;68.34;97717.13;1797791;80;20967;-81
2021/11/06 08:47:29;;;;;;;5.40;4.28;;;;;;;8.17;68.12;97719.89;1797986;80;21373;-81
2021/11/06 08:49:54;;;;;;;4.28;3.70;;;;;;;8.24;67.93;97719.20;1797966;80;20994;-81
2021/11/06 08:52:23;;;;;;;3.42;3.12;;;;;;;8.29;67.26;97716.20;1798011;80;20955;-81
2021/11/06 08:54:49;;;;;;;3.58;3.27;;;;;;;8.29;67.30;97720.91;1797758;80;21007;-81
2021/11/06 08:57:17;;;;;;;4.25;3.52;;;;;;;8.29;67.28;97722.20;1797883;80;20987;-81
2021/11/06 08:59:43;;;;;;;3.67;3.33;;;;;;;8.31;67.34;97724.20;1798187;80;20939;-81
2021/11/06 09:02:10;;;;;;;3.87;3.50;;;;;;;8.34;67.26;97727.84;1797798;80;21499;-82
2021/11/06 09:04:36;;;;;;;3.85;3.40;;;;;;;8.35;66.76;97721.71;1797852;80;20983;-81
2021/11/06 09:07:02;;;;;;;5.10;4.12;;;;;;;8.36;67.03;97731.59;1797984;80;21022;-81
2021/11/06 09:09:28;;;;;;;4.85;3.87;;;;;;;8.32;66.64;97728.91;1797845;80;20979;-82
2021/11/06 09:11:54;;;;;;;5.62;4.62;;;;;;;8.28;66.71;97732.70;1797992;80;20983;-81
2021/11/06 09:14:20;;;;;;;5.75;5.08;;;;;;;8.24;66.70;97731.34;1797924;80;21326;-81
2021/11/06 09:16:46;;;;;;;6.37;5.60;;;;;;;8.25;66.40;97733.78;1771177;80;21023;-81
2021/11/06 09:19:12;;;;;;;7.22;5.67;;;;;;;8.29;66.55;97732.56;1797754;80;21038;-81
2021/11/06 09:21:39;;;;;;;7.03;5.62;;;;;;;8.34;66.49;97738.69;1797940;80;21330;-81
2021/11/06 09:24:05;;;;;;;7.05;5.90;;;;;;;8.38;66.83;97734.86;1771546;80;20998;-81
2021/11/06 09:26:33;;;;;;;5.92;4.75;;;;;;;8.35;66.47;97735.95;1797838;80;21401;-81
2021/11/06 09:28:59;;;;;;;6.60;5.00;;;;;;;8.30;66.37;97738.59;1797879;80;20991;-81
2021/11/06 09:31:24;;;;;;;5.33;4.83;;;;;;;8.23;66.28;97742.65;1798096;80;20975;-81
2021/11/06 09:33:50;;;;;;;5.65;4.97;;;;;;;8.20;66.43;97746.33;1797656;80;21089;-81
2021/11/06 09:36:18;;;;;;;6.83;5.70;;;;;;;8.14;66.39;97742.98;1797855;80;21031;-81
2021/11/06 09:38:43;;;;;;;6.78;5.08;;;;;;;8.11;66.56;97743.23;1771196;80;21357;-81
2021/11/06 09:41:10;;;;;;;5.50;4.83;;;;;;;8.15;66.52;97744.63;1798147;80;20982;-82
2021/11/06 09:43:37;;;;;;;10.00;7.83;;;;;;;8.20;66.52;97737.27;1798060;80;20972;-82
2021/11/06 09:46:03;;;;;;;25.00;18.32;;;;;;;8.23;66.09;97730.99;1798137;80;20939;-81
2021/11/06 09:48:30;;;;;;;12.28;8.98;;;;;;;8.27;66.17;97733.65;1798235;80;20919;-81
2021/11/06 09:50:57;;;;;;;6.47;5.30;;;;;;;8.35;65.66;97733.84;1798169;80;21003;-81
2021/11/06 09:53:28;;;;;;;6.80;4.87;;;;;;;8.47;65.72;97725.00;1798130;80;20968;-81
2021/11/06 09:55:54;;;;;;;4.05;3.60;;;;;;;8.59;65.53;97723.08;1772366;80;21484;-81
2021/11/06 09:58:20;;;;;;;4.10;3.60;;;;;;;8.68;64.95;97720.97;1798141;80;20980;-82
2021/11/06 10:00:47;;;;;;;4.47;2.85;;;;;;;8.68;64.62;97717.09;1798179;80;20940;-82
2021/11/06 10:03:13;;;;;;;5.35;3.92;;;;;;;8.67;64.50;97714.16;1798096;80;21385;-81
2021/11/06 10:05:51;;;;;;;12.28;8.95;;;;;;;8.72;64.46;97714.55;1798281;80;21014;-81
2021/11/06 10:08:23;;;;;;;7.28;5.28;;;;;;;8.76;64.54;97713.80;1798428;80;20967;-81
2021/11/06 10:10:51;;;;;;;5.25;3.95;;;;;;;8.83;64.91;97713.13;1798250;80;21074;-82
2021/11/06 10:13:17;;;;;;;7.75;4.90;;;;;;;8.88;64.34;97710.92;1798218;80;21062;-81
2021/11/06 10:15:47;;;;;;;6.97;6.12;;;;;;;8.90;63.75;97707.71;1798429;80;21094;-81
2021/11/06 10:18:18;;;;;;;5.45;4.62;;;;;;;8.87;63.71;97706.70;1798197;80;21451;-81
2021/11/06 10:20:46;;;;;;;6.15;4.72;;;;;;;8.88;63.32;97694.55;1796329;80;21062;-82
2021/11/06 10:23:12;;;;;;;10.70;7.30;;;;;;;8.90;63.37;97684.86;1798237;80;21002;-81
2021/11/06 10:25:38;;;;;;;4.35;3.92;;;;;;;8.94;63.39;97691.39;1798512;80;21019;-82
2021/11/06 10:28:07;;;;;;;5.17;3.95;;;;;;;8.95;63.08;97688.69;1798380;80;21050;-82
2021/11/06 10:30:38;;;;;;;5.33;4.83;;;;;;;8.95;63.39;97689.17;1797703;80;21027;-81
2021/11/06 10:33:14;;;;;;;5.78;4.08;;;;;;;8.95;63.23;97684.80;1798419;80;21344;-81
2021/11/06 10:35:49;;;;;;;6.37;5.12;;;;;;;8.94;63.18;97685.73;1798250;80;20980;-82
2021/11/06 10:38:21;;;;;;;9.78;7.35;;;;;;;8.94;63.21;97687.03;1798812;80;21358;-82
2021/11/06 10:41:01;;;;;;;7.20;5.47;;;;;;;8.96;63.01;97681.73;1798442;80;21338;-81
2021/11/06 10:43:27;;;;;;;8.15;6.35;;;;;;;8.97;62.79;97674.30;1774245;80;21401;-82
2021/11/06 10:45:57;;;;;;;6.97;5.28;;;;;;;8.98;62.78;97673.33;1798428;80;21101;-82
2021/11/06 10:48:33;;;;;;;4.78;4.00;;;;;;;9.00;63.11;97674.83;1798563;80;20982;-82
2021/11/06 10:51:04;;;;;;;7.47;5.65;;;;;;;9.03;62.68;97669.35;1797691;80;21090;-82
2021/11/06 10:53:39;;;;;;;6.00;4.90;;;;;;;9.05;62.48;97669.20;1797305;80;21552;-81
2021/11/06 10:56:16;;;;;;;6.05;4.97;;;;;;;9.09;62.28;97669.26;1798658;80;21018;-81
2021/11/06 10:58:43;;;;;;;11.22;6.90;;;;;;;9.13;62.77;97665.93;1783972;80;21489;-82
2021/11/06 11:01:12;;;;;;;6.42;5.28;;;;;;;9.14;62.31;97664.48;1798680;80;21002;-82
2021/11/06 11:03:44;;;;;;;7.95;6.05;;;;;;;9.15;62.03;97658.34;1798425;80;21057;-81
2021/11/06 11:06:15;;;;;;;;;;;;;;;9.17;61.80;97663.38;1801399;80;20979;-82
2021/11/06 11:08:49;;;;;;;5.73;4.50;;;;;;;9.20;62.00;97657.91;1814364;79;20108;-82
2021/11/06 11:11:19;;;;;;;6.00;3.98;;;;;;;9.25;62.06;97658.29;1798196;80;20979;-81
2021/11/06 11:14:06;;;;;;;7.08;5.20;;;;;;;9.30;61.83;97651.73;1798691;80;20999;-81
2021/11/06 11:16:33;;;;;;;5.12;4.62;;;;;;;9.37;61.80;97654.56;1797155;80;21015;-81
2021/11/06 11:19:09;;;;;;;5.08;4.42;;;;;;;9.42;61.80;97651.05;1798484;80;21007;-82
2021/11/06 11:21:43;;;;;;;5.50;3.98;;;;;;;9.46;61.61;97649.83;1798872;80;20975;-82
2021/11/06 11:24:12;;;;;;;5.90;4.15;;;;;;;9.46;60.96;97643.83;1798853;80;21003;-82
2021/11/06 11:26:46;;;;;;;4.95;3.75;;;;;;;9.47;60.80;97641.56;1798730;80;21038;-82
2021/11/06 11:29:19;;;;;;;5.20;3.80;;;;;;;9.49;61.08;97643.05;1798015;80;21006;-83
2021/11/06 11:31:43;;;;;;;5.20;4.47;;;;;;;9.54;60.32;97636.94;1798385;80;20987;-82
2021/11/06 11:34:12;;;;;;;5.03;4.20;;;;;;;9.53;60.64;97635.79;1798307;80;21443;-82
2021/11/06 11:36:39;;;;;;;7.35;5.47;;;;;;;9.59;60.89;97631.30;1798700;80;21027;-82